sensor_id;sensor_type;location;lat;lon;timestamp;P1;durP1;ratioP1;P2;durP2;ratioP2
30299;SDS011;17110;52.602;12.998;2024-02-23T00:02:41;2.08;;;0.90;;
30299;SDS011;17110;52.602;12.998;2024-02-23T00:07:41;3.50;;;0.73;;
30299;SDS011;17110;52.602;12.998;2024-02-23T00:12:42;0.60;;;0.60;;
30299;SDS011;17110;52.602;12.998;2024-02-23T00:17:45;1.42;;;0.90;;
30299;SDS011;17110;52.602;12.998;2024-02-23T00:22:45;1.00;;;0.75;;
30299;SDS011;17110;52.602;12.998;2024-02-23T00:27:46;1.30;;;0.95;;
30299;SDS011;17110;52.602;12.998;2024-02-23T00:32:48;1.77;;;1.02;;
30299;SDS011;17110;52.602;12.998;2024-02-23T00:37:49;2.20;;;1.10;;
30299;SDS011;17110;52.602;12.998;2024-02-23T00:42:50;1.17;;;0.85;;
30299;SDS011;17110;52.602;12.998;2024-02-23T00:47:52;1.50;;;1.00;;
30299;SDS011;17110;52.602;12.998;2024-02-23T00:52:52;1.20;;;0.82;;
30299;SDS011;17110;52.602;12.998;2024-02-23T00:57:53;2.05;;;1.13;;
30299;SDS011;17110;52.602;12.998;2024-02-23T01:02:55;3.25;;;1.30;;
30299;SDS011;17110;52.602;12.998;2024-02-23T01:07:56;1.90;;;1.10;;
30299;SDS011;17110;52.602;12.998;2024-02-23T01:12:57;1.10;;;1.00;;
30299;SDS011;17110;52.602;12.998;2024-02-23T01:17:59;1.30;;;1.00;;
30299;SDS011;17110;52.602;12.998;2024-02-23T01:23:00;1.13;;;1.02;;
30299;SDS011;17110;52.602;12.998;2024-02-23T01:28:00;1.08;;;0.90;;
30299;SDS011;17110;52.602;12.998;2024-02-23T01:33:02;2.47;;;1.00;;
30299;SDS011;17110;52.602;12.998;2024-02-23T01:38:03;1.38;;;1.17;;
30299;SDS011;17110;52.602;12.998;2024-02-23T01:43:04;1.95;;;0.80;;
30299;SDS011;17110;52.602;12.998;2024-02-23T01:48:07;1.40;;;0.90;;
30299;SDS011;17110;52.602;12.998;2024-02-23T01:53:07;1.40;;;0.90;;
30299;SDS011;17110;52.602;12.998;2024-02-23T01:58:11;1.05;;;0.65;;
30299;SDS011;17110;52.602;12.998;2024-02-23T02:03:13;0.60;;;0.52;;
30299;SDS011;17110;52.602;12.998;2024-02-23T02:08:14;0.80;;;0.60;;
30299;SDS011;17110;52.602;12.998;2024-02-23T02:13:15;0.70;;;0.70;;
30299;SDS011;17110;52.602;12.998;2024-02-23T02:18:17;1.05;;;0.80;;
30299;SDS011;17110;52.602;12.998;2024-02-23T02:23:18;0.88;;;0.60;;
30299;SDS011;17110;52.602;12.998;2024-02-23T02:28:18;0.88;;;0.60;;
30299;SDS011;17110;52.602;12.998;2024-02-23T02:33:21;3.92;;;0.60;;
30299;SDS011;17110;52.602;12.998;2024-02-23T02:38:22;1.75;;;0.95;;
30299;SDS011;17110;52.602;12.998;2024-02-23T02:43:22;0.50;;;0.50;;
30299;SDS011;17110;52.602;12.998;2024-02-23T02:48:25;2.55;;;0.70;;
30299;SDS011;17110;52.602;12.998;2024-02-23T02:53:25;0.93;;;0.80;;
30299;SDS011;17110;52.602;12.998;2024-02-23T02:58:26;0.80;;;0.80;;
30299;SDS011;17110;52.602;12.998;2024-02-23T03:03:28;1.20;;;0.93;;
30299;SDS011;17110;52.602;12.998;2024-02-23T03:08:29;0.45;;;0.40;;
30299;SDS011;17110;52.602;12.998;2024-02-23T03:13:29;0.73;;;0.60;;
30299;SDS011;17110;52.602;12.998;2024-02-23T03:18:31;0.50;;;0.50;;
30299;SDS011;17110;52.602;12.998;2024-02-23T03:23:32;0.65;;;0.65;;
30299;SDS011;17110;52.602;12.998;2024-02-23T03:28:33;0.65;;;0.60;;
30299;SDS011;17110;52.602;12.998;2024-02-23T03:33:35;0.60;;;0.60;;
30299;SDS011;17110;52.602;12.998;2024-02-23T03:38:36;0.50;;;0.50;;
30299;SDS011;17110;52.602;12.998;2024-02-23T03:43:37;1.35;;;0.70;;
30299;SDS011;17110;52.602;12.998;2024-02-23T03:48:39;1.85;;;0.60;;
30299;SDS011;17110;52.602;12.998;2024-02-23T03:53:40;0.60;;;0.60;;
30299;SDS011;17110;52.602;12.998;2024-02-23T03:58:41;1.55;;;0.47;;
30299;SDS011;17110;52.602;12.998;2024-02-23T04:03:43;2.17;;;0.65;;
30299;SDS011;17110;52.602;12.998;2024-02-23T04:08:44;0.50;;;0.50;;
30299;SDS011;17110;52.602;12.998;2024-02-23T04:13:44;2.92;;;0.80;;
30299;SDS011;17110;52.602;12.998;2024-02-23T04:18:46;1.15;;;0.65;;
30299;SDS011;17110;52.602;12.998;2024-02-23T04:23:47;0.63;;;0.60;;
30299;SDS011;17110;52.602;12.998;2024-02-23T04:28:48;0.60;;;0.60;;
30299;SDS011;17110;52.602;12.998;2024-02-23T04:33:50;0.50;;;0.50;;
30299;SDS011;17110;52.602;12.998;2024-02-23T04:38:51;0.47;;;0.47;;
30299;SDS011;17110;52.602;12.998;2024-02-23T04:43:51;0.77;;;0.50;;
30299;SDS011;17110;52.602;12.998;2024-02-23T04:48:53;0.40;;;0.40;;
30299;SDS011;17110;52.602;12.998;2024-02-23T04:53:54;0.60;;;0.50;;
30299;SDS011;17110;52.602;12.998;2024-02-23T04:58:55;0.47;;;0.47;;
30299;SDS011;17110;52.602;12.998;2024-02-23T05:03:57;0.30;;;0.30;;
30299;SDS011;17110;52.602;12.998;2024-02-23T05:08:58;0.30;;;0.30;;
30299;SDS011;17110;52.602;12.998;2024-02-23T05:13:58;0.30;;;0.30;;
30299;SDS011;17110;52.602;12.998;2024-02-23T05:19:00;0.30;;;0.30;;
30299;SDS011;17110;52.602;12.998;2024-02-23T05:24:01;0.45;;;0.45;;
30299;SDS011;17110;52.602;12.998;2024-02-23T05:29:02;1.08;;;0.60;;
30299;SDS011;17110;52.602;12.998;2024-02-23T05:34:04;0.77;;;0.77;;
30299;SDS011;17110;52.602;12.998;2024-02-23T05:39:05;0.52;;;0.40;;
30299;SDS011;17110;52.602;12.998;2024-02-23T05:44:06;0.95;;;0.60;;
30299;SDS011;17110;52.602;12.998;2024-02-23T05:49:08;0.40;;;0.40;;
30299;SDS011;17110;52.602;12.998;2024-02-23T05:54:09;0.80;;;0.80;;
30299;SDS011;17110;52.602;12.998;2024-02-23T05:59:10;0.40;;;0.40;;
30299;SDS011;17110;52.602;12.998;2024-02-23T06:04:12;0.40;;;0.40;;
30299;SDS011;17110;52.602;12.998;2024-02-23T06:09:13;0.40;;;0.40;;
30299;SDS011;17110;52.602;12.998;2024-02-23T06:14:14;0.80;;;0.60;;
30299;SDS011;17110;52.602;12.998;2024-02-23T06:19:16;1.08;;;0.90;;
30299;SDS011;17110;52.602;12.998;2024-02-23T06:24:17;1.45;;;0.60;;
30299;SDS011;17110;52.602;12.998;2024-02-23T06:29:17;0.70;;;0.70;;
30299;SDS011;17110;52.602;12.998;2024-02-23T06:34:19;1.67;;;0.60;;
30299;SDS011;17110;52.602;12.998;2024-02-23T06:39:20;0.88;;;0.88;;
30299;SDS011;17110;52.602;12.998;2024-02-23T06:44:21;0.90;;;0.88;;
30299;SDS011;17110;52.602;12.998;2024-02-23T06:49:23;0.95;;;0.93;;
30299;SDS011;17110;52.602;12.998;2024-02-23T06:54:24;1.60;;;1.50;;
30299;SDS011;17110;52.602;12.998;2024-02-23T06:59:24;0.90;;;0.90;;
30299;SDS011;17110;52.602;12.998;2024-02-23T07:04:27;0.80;;;0.80;;
30299;SDS011;17110;52.602;12.998;2024-02-23T07:09:27;0.98;;;0.90;;
30299;SDS011;17110;52.602;12.998;2024-02-23T07:14:28;1.20;;;1.10;;
30299;SDS011;17110;52.602;12.998;2024-02-23T07:19:30;2.13;;;0.90;;
30299;SDS011;17110;52.602;12.998;2024-02-23T07:24:31;1.30;;;0.98;;
30299;SDS011;17110;52.602;12.998;2024-02-23T07:29:31;0.88;;;0.85;;
30299;SDS011;17110;52.602;12.998;2024-02-23T07:34:33;0.80;;;0.80;;
30299;SDS011;17110;52.602;12.998;2024-02-23T07:39:34;1.80;;;0.80;;
30299;SDS011;17110;52.602;12.998;2024-02-23T07:44:35;0.80;;;0.80;;
30299;SDS011;17110;52.602;12.998;2024-02-23T07:49:37;0.65;;;0.60;;
30299;SDS011;17110;52.602;12.998;2024-02-23T07:54:38;1.17;;;0.90;;
30299;SDS011;17110;52.602;12.998;2024-02-23T07:59:39;2.05;;;0.88;;
30299;SDS011;17110;52.602;12.998;2024-02-23T08:04:41;0.77;;;0.73;;
30299;SDS011;17110;52.602;12.998;2024-02-23T08:09:42;1.05;;;0.98;;
30299;SDS011;17110;52.602;12.998;2024-02-23T08:14:42;1.83;;;0.70;;
30299;SDS011;17110;52.602;12.998;2024-02-23T08:19:46;2.83;;;0.70;;
30299;SDS011;17110;52.602;12.998;2024-02-23T08:24:46;1.20;;;0.68;;
30299;SDS011;17110;52.602;12.998;2024-02-23T08:29:47;1.02;;;0.90;;
30299;SDS011;17110;52.602;12.998;2024-02-23T08:34:49;0.82;;;0.82;;
30299;SDS011;17110;52.602;12.998;2024-02-23T08:39:50;0.68;;;0.68;;
30299;SDS011;17110;52.602;12.998;2024-02-23T08:44:51;0.80;;;0.60;;
30299;SDS011;17110;52.602;12.998;2024-02-23T08:49:53;0.70;;;0.63;;
30299;SDS011;17110;52.602;12.998;2024-02-23T08:54:53;0.70;;;0.70;;
30299;SDS011;17110;52.602;12.998;2024-02-23T08:59:54;0.70;;;0.70;;
30299;SDS011;17110;52.602;12.998;2024-02-23T09:04:56;0.70;;;0.70;;
30299;SDS011;17110;52.602;12.998;2024-02-23T09:09:57;1.10;;;0.80;;
30299;SDS011;17110;52.602;12.998;2024-02-23T09:14:58;1.13;;;0.80;;
30299;SDS011;17110;52.602;12.998;2024-02-23T09:20:00;1.10;;;0.70;;
30299;SDS011;17110;52.602;12.998;2024-02-23T09:25:00;0.85;;;0.85;;
30299;SDS011;17110;52.602;12.998;2024-02-23T09:30:01;1.17;;;0.73;;
30299;SDS011;17110;52.602;12.998;2024-02-23T09:35:04;1.48;;;0.57;;
30299;SDS011;17110;52.602;12.998;2024-02-23T09:40:06;0.63;;;0.50;;
30299;SDS011;17110;52.602;12.998;2024-02-23T09:45:08;0.90;;;0.80;;
30299;SDS011;17110;52.602;12.998;2024-02-23T09:50:15;1.38;;;0.95;;
30299;SDS011;17110;52.602;12.998;2024-02-23T09:55:22;0.85;;;0.52;;
30299;SDS011;17110;52.602;12.998;2024-02-23T10:00:23;1.98;;;0.73;;
30299;SDS011;17110;52.602;12.998;2024-02-23T10:05:29;0.70;;;0.40;;
30299;SDS011;17110;52.602;12.998;2024-02-23T10:10:32;0.52;;;0.52;;
30299;SDS011;17110;52.602;12.998;2024-02-23T10:15:33;0.43;;;0.40;;
30299;SDS011;17110;52.602;12.998;2024-02-23T10:20:35;0.70;;;0.50;;
30299;SDS011;17110;52.602;12.998;2024-02-23T10:25:36;1.10;;;0.50;;
30299;SDS011;17110;52.602;12.998;2024-02-23T10:30:37;1.10;;;0.70;;
30299;SDS011;17110;52.602;12.998;2024-02-23T10:35:39;2.90;;;0.80;;
30299;SDS011;17110;52.602;12.998;2024-02-23T10:40:42;2.50;;;0.60;;
30299;SDS011;17110;52.602;12.998;2024-02-23T10:45:44;2.95;;;1.10;;
30299;SDS011;17110;52.602;12.998;2024-02-23T10:50:47;1.95;;;0.80;;
30299;SDS011;17110;52.602;12.998;2024-02-23T10:55:50;1.35;;;0.60;;
30299;SDS011;17110;52.602;12.998;2024-02-23T11:00:57;0.85;;;0.70;;
30299;SDS011;17110;52.602;12.998;2024-02-23T11:06:02;1.38;;;0.93;;
30299;SDS011;17110;52.602;12.998;2024-02-23T11:11:08;0.77;;;0.65;;
30299;SDS011;17110;52.602;12.998;2024-02-23T11:16:09;0.60;;;0.60;;
30299;SDS011;17110;52.602;12.998;2024-02-23T11:21:11;0.68;;;0.60;;
30299;SDS011;17110;52.602;12.998;2024-02-23T11:26:12;1.08;;;0.50;;
30299;SDS011;17110;52.602;12.998;2024-02-23T11:31:15;1.00;;;0.73;;
30299;SDS011;17110;52.602;12.998;2024-02-23T11:36:23;0.60;;;0.55;;
30299;SDS011;17110;52.602;12.998;2024-02-23T11:41:27;2.65;;;0.60;;
30299;SDS011;17110;52.602;12.998;2024-02-23T11:46:28;0.57;;;0.57;;
30299;SDS011;17110;52.602;12.998;2024-02-23T11:51:30;1.60;;;0.80;;
30299;SDS011;17110;52.602;12.998;2024-02-23T11:56:31;1.20;;;0.63;;
30299;SDS011;17110;52.602;12.998;2024-02-23T12:01:32;1.00;;;0.52;;
30299;SDS011;17110;52.602;12.998;2024-02-23T12:06:34;0.88;;;0.60;;
30299;SDS011;17110;52.602;12.998;2024-02-23T12:11:35;3.22;;;0.80;;
30299;SDS011;17110;52.602;12.998;2024-02-23T12:16:36;0.40;;;0.40;;
30299;SDS011;17110;52.602;12.998;2024-02-23T12:21:38;1.50;;;0.70;;
30299;SDS011;17110;52.602;12.998;2024-02-23T12:26:39;1.30;;;0.70;;
30299;SDS011;17110;52.602;12.998;2024-02-23T12:31:40;1.52;;;0.60;;
30299;SDS011;17110;52.602;12.998;2024-02-23T12:36:42;1.80;;;0.63;;
30299;SDS011;17110;52.602;12.998;2024-02-23T12:41:43;0.73;;;0.50;;
30299;SDS011;17110;52.602;12.998;2024-02-23T12:46:44;1.92;;;0.70;;
30299;SDS011;17110;52.602;12.998;2024-02-23T12:51:46;2.55;;;0.65;;
30299;SDS011;17110;52.602;12.998;2024-02-23T12:56:47;1.42;;;0.80;;
30299;SDS011;17110;52.602;12.998;2024-02-23T13:01:47;2.63;;;0.80;;
30299;SDS011;17110;52.602;12.998;2024-02-23T13:06:49;1.30;;;0.73;;
30299;SDS011;17110;52.602;12.998;2024-02-23T13:11:50;1.90;;;0.77;;
30299;SDS011;17110;52.602;12.998;2024-02-23T13:16:51;1.38;;;0.65;;
30299;SDS011;17110;52.602;12.998;2024-02-23T13:21:53;0.38;;;0.38;;
30299;SDS011;17110;52.602;12.998;2024-02-23T13:26:54;1.85;;;0.93;;
30299;SDS011;17110;52.602;12.998;2024-02-23T13:31:54;1.33;;;0.80;;
30299;SDS011;17110;52.602;12.998;2024-02-23T13:36:56;2.13;;;0.88;;
30299;SDS011;17110;52.602;12.998;2024-02-23T13:41:57;0.65;;;0.55;;
30299;SDS011;17110;52.602;12.998;2024-02-23T13:46:58;1.50;;;0.70;;
30299;SDS011;17110;52.602;12.998;2024-02-23T13:52:00;1.73;;;1.00;;
30299;SDS011;17110;52.602;12.998;2024-02-23T13:57:01;3.50;;;1.02;;
30299;SDS011;17110;52.602;12.998;2024-02-23T14:02:01;1.48;;;0.80;;
30299;SDS011;17110;52.602;12.998;2024-02-23T14:07:04;4.97;;;1.00;;
30299;SDS011;17110;52.602;12.998;2024-02-23T14:12:04;2.03;;;1.10;;
30299;SDS011;17110;52.602;12.998;2024-02-23T14:17:05;1.50;;;0.90;;
30299;SDS011;17110;52.602;12.998;2024-02-23T14:22:08;1.88;;;0.80;;
30299;SDS011;17110;52.602;12.998;2024-02-23T14:27:08;2.95;;;0.73;;
30299;SDS011;17110;52.602;12.998;2024-02-23T14:32:14;1.77;;;1.08;;
30299;SDS011;17110;52.602;12.998;2024-02-23T14:37:17;1.42;;;0.90;;
30299;SDS011;17110;52.602;12.998;2024-02-23T14:42:18;3.20;;;1.13;;
30299;SDS011;17110;52.602;12.998;2024-02-23T14:47:19;3.28;;;0.90;;
30299;SDS011;17110;52.602;12.998;2024-02-23T14:52:21;2.13;;;1.05;;
30299;SDS011;17110;52.602;12.998;2024-02-23T14:57:21;1.85;;;1.00;;
30299;SDS011;17110;52.602;12.998;2024-02-23T15:02:22;2.45;;;1.00;;
30299;SDS011;17110;52.602;12.998;2024-02-23T15:07:24;1.95;;;1.10;;
30299;SDS011;17110;52.602;12.998;2024-02-23T15:12:25;2.80;;;0.90;;
30299;SDS011;17110;52.602;12.998;2024-02-23T15:17:26;2.17;;;1.10;;
30299;SDS011;17110;52.602;12.998;2024-02-23T15:22:28;2.80;;;1.17;;
30299;SDS011;17110;52.602;12.998;2024-02-23T15:27:29;2.53;;;1.27;;
30299;SDS011;17110;52.602;12.998;2024-02-23T15:32:30;1.55;;;1.10;;
30299;SDS011;17110;52.602;12.998;2024-02-23T15:37:32;1.85;;;1.20;;
30299;SDS011;17110;52.602;12.998;2024-02-23T15:42:33;1.45;;;1.35;;
30299;SDS011;17110;52.602;12.998;2024-02-23T15:47:34;2.03;;;1.40;;
30299;SDS011;17110;52.602;12.998;2024-02-23T15:52:36;2.75;;;1.20;;
30299;SDS011;17110;52.602;12.998;2024-02-23T15:57:37;4.78;;;1.30;;
30299;SDS011;17110;52.602;12.998;2024-02-23T16:02:37;2.67;;;1.52;;
30299;SDS011;17110;52.602;12.998;2024-02-23T16:07:39;4.05;;;1.50;;
30299;SDS011;17110;52.602;12.998;2024-02-23T16:12:40;2.00;;;1.30;;
30299;SDS011;17110;52.602;12.998;2024-02-23T16:17:41;2.85;;;1.25;;
30299;SDS011;17110;52.602;12.998;2024-02-23T16:22:44;4.30;;;1.73;;
30299;SDS011;17110;52.602;12.998;2024-02-23T16:27:44;4.88;;;1.60;;
30299;SDS011;17110;52.602;12.998;2024-02-23T16:32:45;2.63;;;1.60;;
30299;SDS011;17110;52.602;12.998;2024-02-23T16:37:47;3.35;;;2.10;;
30299;SDS011;17110;52.602;12.998;2024-02-23T16:42:48;3.65;;;2.13;;
30299;SDS011;17110;52.602;12.998;2024-02-23T16:47:49;4.97;;;2.65;;
30299;SDS011;17110;52.602;12.998;2024-02-23T16:52:51;5.00;;;1.90;;
30299;SDS011;17110;52.602;12.998;2024-02-23T16:57:52;4.03;;;1.50;;
30299;SDS011;17110;52.602;12.998;2024-02-23T17:02:53;3.83;;;1.90;;
30299;SDS011;17110;52.602;12.998;2024-02-23T17:07:55;3.53;;;1.77;;
30299;SDS011;17110;52.602;12.998;2024-02-23T17:12:56;4.57;;;1.83;;
30299;SDS011;17110;52.602;12.998;2024-02-23T17:17:57;3.35;;;1.80;;
30299;SDS011;17110;52.602;12.998;2024-02-23T17:22:59;2.45;;;1.30;;
30299;SDS011;17110;52.602;12.998;2024-02-23T17:28:00;2.13;;;1.70;;
30299;SDS011;17110;52.602;12.998;2024-02-23T17:33:00;1.60;;;1.30;;
30299;SDS011;17110;52.602;12.998;2024-02-23T17:38:03;2.60;;;1.65;;
30299;SDS011;17110;52.602;12.998;2024-02-23T17:43:03;3.42;;;1.65;;
30299;SDS011;17110;52.602;12.998;2024-02-23T17:48:04;3.65;;;1.27;;
30299;SDS011;17110;52.602;12.998;2024-02-23T17:53:07;3.08;;;1.55;;
30299;SDS011;17110;52.602;12.998;2024-02-23T17:58:07;1.52;;;1.40;;
30299;SDS011;17110;52.602;12.998;2024-02-23T18:03:08;4.88;;;1.60;;
30299;SDS011;17110;52.602;12.998;2024-02-23T18:08:10;4.20;;;1.95;;
30299;SDS011;17110;52.602;12.998;2024-02-23T18:13:11;3.60;;;1.80;;
30299;SDS011;17110;52.602;12.998;2024-02-23T18:18:12;3.83;;;1.77;;
30299;SDS011;17110;52.602;12.998;2024-02-23T18:23:14;1.90;;;1.55;;
30299;SDS011;17110;52.602;12.998;2024-02-23T18:28:15;3.75;;;1.90;;
30299;SDS011;17110;52.602;12.998;2024-02-23T18:33:15;4.88;;;2.00;;
30299;SDS011;17110;52.602;12.998;2024-02-23T18:38:17;2.90;;;2.00;;
30299;SDS011;17110;52.602;12.998;2024-02-23T18:43:18;3.83;;;1.83;;
30299;SDS011;17110;52.602;12.998;2024-02-23T18:48:19;2.58;;;1.70;;
30299;SDS011;17110;52.602;12.998;2024-02-23T18:53:21;2.70;;;2.42;;
30299;SDS011;17110;52.602;12.998;2024-02-23T18:58:22;3.25;;;2.25;;
30299;SDS011;17110;52.602;12.998;2024-02-23T19:03:22;5.25;;;2.75;;
30299;SDS011;17110;52.602;12.998;2024-02-23T19:08:24;3.38;;;3.00;;
30299;SDS011;17110;52.602;12.998;2024-02-23T19:13:25;3.70;;;2.40;;
30299;SDS011;17110;52.602;12.998;2024-02-23T19:18:26;6.68;;;4.43;;
30299;SDS011;17110;52.602;12.998;2024-02-23T19:23:28;7.35;;;4.90;;
30299;SDS011;17110;52.602;12.998;2024-02-23T19:28:29;6.25;;;2.88;;
30299;SDS011;17110;52.602;12.998;2024-02-23T19:33:29;6.07;;;2.60;;
30299;SDS011;17110;52.602;12.998;2024-02-23T19:38:32;5.35;;;4.07;;
30299;SDS011;17110;52.602;12.998;2024-02-23T19:43:32;6.15;;;3.75;;
30299;SDS011;17110;52.602;12.998;2024-02-23T19:48:33;4.53;;;3.13;;
30299;SDS011;17110;52.602;12.998;2024-02-23T19:53:35;6.45;;;3.20;;
30299;SDS011;17110;52.602;12.998;2024-02-23T19:58:36;5.57;;;3.83;;
30299;SDS011;17110;52.602;12.998;2024-02-23T20:03:36;14.07;;;7.22;;
30299;SDS011;17110;52.602;12.998;2024-02-23T20:08:39;16.13;;;9.88;;
30299;SDS011;17110;52.602;12.998;2024-02-23T20:13:40;8.75;;;4.68;;
30299;SDS011;17110;52.602;12.998;2024-02-23T20:18:40;8.07;;;4.75;;
30299;SDS011;17110;52.602;12.998;2024-02-23T20:23:42;8.20;;;4.85;;
30299;SDS011;17110;52.602;12.998;2024-02-23T20:28:43;8.32;;;5.78;;
30299;SDS011;17110;52.602;12.998;2024-02-23T20:33:44;7.88;;;3.85;;
30299;SDS011;17110;52.602;12.998;2024-02-23T20:38:46;5.35;;;3.55;;
30299;SDS011;17110;52.602;12.998;2024-02-23T20:43:47;5.38;;;3.30;;
30299;SDS011;17110;52.602;12.998;2024-02-23T20:48:47;6.95;;;2.95;;
30299;SDS011;17110;52.602;12.998;2024-02-23T20:53:49;7.05;;;2.85;;
30299;SDS011;17110;52.602;12.998;2024-02-23T20:58:50;5.78;;;2.55;;
30299;SDS011;17110;52.602;12.998;2024-02-23T21:03:51;3.47;;;2.00;;
30299;SDS011;17110;52.602;12.998;2024-02-23T21:08:53;4.60;;;2.92;;
30299;SDS011;17110;52.602;12.998;2024-02-23T21:13:54;5.20;;;2.47;;
30299;SDS011;17110;52.602;12.998;2024-02-23T21:18:54;2.85;;;2.20;;
30299;SDS011;17110;52.602;12.998;2024-02-23T21:23:56;3.90;;;2.65;;
30299;SDS011;17110;52.602;12.998;2024-02-23T21:28:57;6.75;;;4.30;;
30299;SDS011;17110;52.602;12.998;2024-02-23T21:33:58;5.93;;;4.30;;
30299;SDS011;17110;52.602;12.998;2024-02-23T21:39:00;5.15;;;4.47;;
30299;SDS011;17110;52.602;12.998;2024-02-23T21:44:01;5.72;;;3.92;;
30299;SDS011;17110;52.602;12.998;2024-02-23T21:49:01;5.55;;;3.88;;
30299;SDS011;17110;52.602;12.998;2024-02-23T21:54:04;4.10;;;3.00;;
30299;SDS011;17110;52.602;12.998;2024-02-23T21:59:04;4.57;;;3.20;;
30299;SDS011;17110;52.602;12.998;2024-02-23T22:04:05;6.00;;;3.38;;
30299;SDS011;17110;52.602;12.998;2024-02-23T22:09:07;7.35;;;3.00;;
30299;SDS011;17110;52.602;12.998;2024-02-23T22:14:08;4.35;;;2.72;;
30299;SDS011;17110;52.602;12.998;2024-02-23T22:19:09;4.60;;;2.70;;
30299;SDS011;17110;52.602;12.998;2024-02-23T22:24:11;3.75;;;2.13;;
30299;SDS011;17110;52.602;12.998;2024-02-23T22:29:11;2.45;;;1.80;;
30299;SDS011;17110;52.602;12.998;2024-02-23T22:34:12;1.90;;;1.58;;
30299;SDS011;17110;52.602;12.998;2024-02-23T22:39:14;3.15;;;1.90;;
30299;SDS011;17110;52.602;12.998;2024-02-23T22:44:15;4.18;;;1.73;;
30299;SDS011;17110;52.602;12.998;2024-02-23T22:49:16;2.45;;;1.65;;
30299;SDS011;17110;52.602;12.998;2024-02-23T22:54:18;2.33;;;1.77;;
30299;SDS011;17110;52.602;12.998;2024-02-23T22:59:19;3.35;;;1.85;;
30299;SDS011;17110;52.602;12.998;2024-02-23T23:04:19;2.40;;;1.80;;
30299;SDS011;17110;52.602;12.998;2024-02-23T23:09:21;3.40;;;1.88;;
30299;SDS011;17110;52.602;12.998;2024-02-23T23:14:22;1.73;;;1.60;;
30299;SDS011;17110;52.602;12.998;2024-02-23T23:19:23;3.85;;;1.50;;
30299;SDS011;17110;52.602;12.998;2024-02-23T23:24:25;2.63;;;1.85;;
30299;SDS011;17110;52.602;12.998;2024-02-23T23:29:26;3.08;;;1.70;;
30299;SDS011;17110;52.602;12.998;2024-02-23T23:34:26;3.88;;;1.83;;
30299;SDS011;17110;52.602;12.998;2024-02-23T23:39:28;2.78;;;1.85;;
30299;SDS011;17110;52.602;12.998;2024-02-23T23:44:29;4.10;;;2.00;;
30299;SDS011;17110;52.602;12.998;2024-02-23T23:49:30;4.47;;;2.05;;
30299;SDS011;17110;52.602;12.998;2024-02-23T23:54:32;3.33;;;1.83;;
30299;SDS011;17110;52.602;12.998;2024-02-23T23:59:33;2.80;;;1.75;;
